Time;durP1;ratioP1;P1;durP2;ratioP2;P2;SDS_P1;SDS_P2;PMS_P1;PMS_P2;Temp;Humidity;BMP_temperature;BMP_pressure;BME280_temperature;BME280_humidity;BME280_pressure;Samples;Min_cycle;Max_cycle;Signal;HPM_P1;HPM_P2
2022/08/05 00:02:20;;;;;;;10.20;2.85;;;;;;;;;;5100348;27;20056;-68
2022/08/05 00:04:46;;;;;;;9.25;2.55;;;;;;;;;;5090159;27;20053;-67
2022/08/05 00:07:21;;;;;;;4.60;2.17;;;;;;;;;;5091033;28;20179;-67
2022/08/05 00:10:07;;;;;;;8.30;2.60;;;;;;;;;;5078036;28;20060;-67
2022/08/05 00:12:34;;;;;;;11.52;2.55;;;;;;;;;;5089522;28;20508;-67
2022/08/05 00:15:20;;;;;;;7.13;2.28;;;;;;;;;;5091473;27;20048;-67
2022/08/05 00:18:07;;;;;;;4.47;2.28;;;;;;;;;;5079003;28;20060;-68
2022/08/05 00:20:33;;;;;;;6.35;2.28;;;;;;;;;;5073936;28;20056;-68
2022/08/05 00:22:59;;;;;;;5.55;2.03;;;;;;;;;;5074066;28;20140;-67
2022/08/05 00:25:38;;;;;;;10.27;2.72;;;;;;;;;;5089658;28;20487;-68
2022/08/05 00:28:11;;;;;;;7.47;2.30;;;;;;;;;;5090325;28;20052;-69
2022/08/05 00:30:38;;;;;;;6.30;2.10;;;;;;;;;;5082638;28;20052;-68
2022/08/05 00:33:09;;;;;;;7.53;2.17;;;;;;;;;;5091501;28;20055;-67
2022/08/05 00:35:55;;;;;;;8.00;2.13;;;;;;;;;;5089339;28;20053;-68
2022/08/05 00:38:43;;;;;;;7.35;2.55;;;;;;;;;;5071948;28;20064;-67
2022/08/05 00:41:09;;;;;;;5.80;2.35;;;;;;;;;;5074210;28;20057;-67
2022/08/05 00:43:37;;;;;;;6.78;1.80;;;;;;;;;;5090596;28;20060;-68
2022/08/05 00:46:12;;;;;;;6.72;2.28;;;;;;;;;;5090170;28;20053;-67
2022/08/05 00:48:39;;;;;;;4.13;2.00;;;;;;;;;;5091609;28;20052;-68
2022/08/05 00:51:17;;;;;;;5.20;2.08;;;;;;;;;;5090930;28;20060;-68
2022/08/05 00:54:03;;;;;;;5.03;2.00;;;;;;;;;;5086624;28;20063;-69
2022/08/05 00:56:31;;;;;;;4.68;1.60;;;;;;;;;;5082345;28;20055;-68
2022/08/05 00:58:57;;;;;;;4.75;1.63;;;;;;;;;;5091021;28;20424;-68
2022/08/05 01:01:25;;;;;;;5.22;1.65;;;;;;;;;;5087176;28;20052;-68
2022/08/05 01:04:11;;;;;;;5.00;1.90;;;;;;;;;;5087651;28;20465;-68
2022/08/05 01:06:39;;;;;;;4.13;1.90;;;;;;;;;;5089506;28;20159;-69
2022/08/05 01:09:08;;;;;;;5.53;1.95;;;;;;;;;;5089204;28;20486;-68
2022/08/05 01:11:36;;;;;;;5.25;2.15;;;;;;;;;;5087425;28;20056;-68
2022/08/05 01:14:16;;;;;;;3.75;1.42;;;;;;;;;;5091333;28;20180;-68
2022/08/05 01:16:55;;;;;;;3.97;1.55;;;;;;;;;;5071584;28;20060;-68
2022/08/05 01:19:22;;;;;;;6.53;1.60;;;;;;;;;;5083562;28;20059;-68
2022/08/05 01:22:24;;;;;;;2.42;1.42;;;;;;;;;;5089858;28;20045;-68
2022/08/05 01:25:02;;;;;;;7.18;1.67;;;;;;;;;;5084712;28;20500;-68
2022/08/05 01:27:41;;;;;;;3.90;1.77;;;;;;;;;;5085278;28;20061;-68
2022/08/05 01:30:21;;;;;;;2.58;2.08;;;;;;;;;;5093932;28;20048;-68
2022/08/05 01:33:00;;;;;;;1.75;1.20;;;;;;;;;;5083686;28;20059;-68
2022/08/05 01:35:30;;;;;;;3.90;1.50;;;;;;;;;;5093691;28;20056;-68
2022/08/05 01:38:17;;;;;;;3.33;1.60;;;;;;;;;;5093053;28;20048;-68
2022/08/05 01:40:56;;;;;;;3.75;1.65;;;;;;;;;;5094201;28;20074;-68
2022/08/05 01:43:25;;;;;;;5.45;1.85;;;;;;;;;;5093746;28;20072;-67
2022/08/05 01:45:52;;;;;;;4.40;1.52;;;;;;;;;;5093291;28;20131;-68
2022/08/05 01:48:22;;;;;;;4.88;1.65;;;;;;;;;;5093672;28;20507;-68
2022/08/05 01:50:50;;;;;;;3.70;1.42;;;;;;;;;;5093579;28;20492;-68
2022/08/05 01:53:20;;;;;;;6.18;1.92;;;;;;;;;;5091693;28;20079;-68
2022/08/05 01:56:08;;;;;;;5.50;1.88;;;;;;;;;;5076603;27;20079;-68
2022/08/05 01:58:34;;;;;;;5.07;1.65;;;;;;;;;;5085711;28;20057;-68
2022/08/05 02:01:12;;;;;;;8.50;1.70;;;;;;;;;;5093914;28;20059;-68
2022/08/05 02:03:42;;;;;;;4.03;1.50;;;;;;;;;;5094204;28;20056;-68
2022/08/05 02:06:08;;;;;;;2.67;1.40;;;;;;;;;;5092433;28;20060;-69
2022/08/05 02:08:55;;;;;;;5.53;1.70;;;;;;;;;;5074539;28;20075;-69
2022/08/05 02:11:25;;;;;;;3.35;1.20;;;;;;;;;;5092448;28;20079;-69
2022/08/05 02:14:07;;;;;;;2.95;1.40;;;;;;;;;;5078456;28;20561;-69
2022/08/05 02:16:43;;;;;;;2.35;1.40;;;;;;;;;;5082727;28;20049;-69
2022/08/05 02:19:19;;;;;;;2.38;1.20;;;;;;;;;;5079045;28;20136;-69
2022/08/05 02:21:57;;;;;;;2.65;1.50;;;;;;;;;;5090129;28;20179;-69
2022/08/05 02:24:26;;;;;;;1.50;1.27;;;;;;;;;;5074981;28;20052;-69
2022/08/05 02:26:58;;;;;;;3.50;1.23;;;;;;;;;;5092172;28;20057;-69
2022/08/05 02:29:35;;;;;;;4.68;1.40;;;;;;;;;;5072481;28;20057;-69
2022/08/05 02:32:24;;;;;;;2.75;1.30;;;;;;;;;;5080609;28;20060;-69
2022/08/05 02:34:58;;;;;;;5.70;1.73;;;;;;;;;;5079317;28;20566;-69
2022/08/05 02:37:29;;;;;;;3.33;1.27;;;;;;;;;;5081884;28;20103;-69
2022/08/05 02:39:57;;;;;;;3.13;1.40;;;;;;;;;;5083359;28;20048;-69
2022/08/05 02:42:24;;;;;;;3.08;1.40;;;;;;;;;;5079490;28;20052;-69
2022/08/05 02:44:53;;;;;;;7.63;1.90;;;;;;;;;;5086664;28;20557;-69
2022/08/05 02:47:21;;;;;;;4.40;1.50;;;;;;;;;;5099453;27;20403;-68
2022/08/05 02:49:48;;;;;;;6.43;2.10;;;;;;;;;;5089112;28;20413;-68
2022/08/05 02:52:16;;;;;;;4.35;1.80;;;;;;;;;;5092343;28;20051;-68
2022/08/05 02:54:56;;;;;;;3.28;1.40;;;;;;;;;;5087160;28;20055;-68
2022/08/05 02:57:23;;;;;;;3.72;1.48;;;;;;;;;;5082677;28;20056;-69
2022/08/05 03:00:11;;;;;;;5.93;1.67;;;;;;;;;;5087170;28;20050;-69
2022/08/05 03:02:38;;;;;;;3.30;1.58;;;;;;;;;;5083402;27;20487;-68
2022/08/05 03:05:06;;;;;;;4.85;1.52;;;;;;;;;;5092071;28;20139;-68
2022/08/05 03:07:33;;;;;;;3.67;1.30;;;;;;;;;;5092315;28;20679;-68
2022/08/05 03:10:20;;;;;;;2.78;1.48;;;;;;;;;;5090585;28;20504;-68
2022/08/05 03:12:51;;;;;;;5.93;2.00;;;;;;;;;;5087197;28;20055;-68
2022/08/05 03:15:18;;;;;;;3.92;1.42;;;;;;;;;;5093218;28;20056;-68
2022/08/05 03:17:45;;;;;;;3.35;1.38;;;;;;;;;;5091969;28;20056;-68
2022/08/05 03:20:11;;;;;;;6.35;1.80;;;;;;;;;;5093809;28;20143;-68
2022/08/05 03:22:38;;;;;;;2.60;1.25;;;;;;;;;;5091030;28;20492;-68
2022/08/05 03:25:16;;;;;;;2.70;1.50;;;;;;;;;;5092613;28;20049;-68
2022/08/05 03:28:03;;;;;;;1.48;1.38;;;;;;;;;;5097837;27;20091;-68
2022/08/05 03:30:33;;;;;;;2.17;1.55;;;;;;;;;;5092387;28;20058;-68
2022/08/05 03:33:03;;;;;;;4.85;1.70;;;;;;;;;;5092595;28;20052;-68
2022/08/05 03:35:34;;;;;;;3.25;1.73;;;;;;;;;;5083650;28;20154;-68
2022/08/05 03:38:07;;;;;;;4.82;1.75;;;;;;;;;;5085730;28;20078;-68
2022/08/05 03:40:33;;;;;;;6.32;1.65;;;;;;;;;;5096130;28;20056;-68
2022/08/05 03:43:02;;;;;;;5.25;1.70;;;;;;;;;;5089731;28;20045;-68
2022/08/05 03:45:48;;;;;;;5.25;1.77;;;;;;;;;;5087038;28;20060;-69
2022/08/05 03:48:23;;;;;;;2.78;1.65;;;;;;;;;;5091099;28;20052;-68
2022/08/05 03:50:54;;;;;;;3.15;1.67;;;;;;;;;;5091111;28;20053;-68
2022/08/05 03:53:46;;;;;;;1.70;1.45;;;;;;;;;;5088871;27;20056;-67
2022/08/05 03:56:38;;;;;;;2.58;1.35;;;;;;;;;;5104920;28;20068;-67
2022/08/05 03:59:18;;;;;;;3.47;1.77;;;;;;;;;;5092612;28;20558;-67
2022/08/05 04:01:47;;;;;;;2.90;1.55;;;;;;;;;;5086230;28;20255;-69
2022/08/05 04:04:14;;;;;;;2.78;1.50;;;;;;;;;;5091657;28;20059;-67
2022/08/05 04:06:47;;;;;;;2.05;1.27;;;;;;;;;;5091498;28;20467;-68
2022/08/05 04:09:17;;;;;;;4.32;2.08;;;;;;;;;;5085894;28;20482;-68
2022/08/05 04:11:52;;;;;;;4.15;1.70;;;;;;;;;;5079705;28;20060;-68
2022/08/05 04:14:18;;;;;;;5.90;2.10;;;;;;;;;;5083427;28;20049;-68
2022/08/05 04:16:56;;;;;;;2.63;1.55;;;;;;;;;;5090267;28;20059;-68
2022/08/05 04:19:22;;;;;;;4.80;1.98;;;;;;;;;;5085392;28;20044;-68
2022/08/05 04:21:49;;;;;;;4.00;1.70;;;;;;;;;;5091726;28;20377;-68
2022/08/05 04:24:36;;;;;;;5.28;1.67;;;;;;;;;;5097838;27;20058;-68
2022/08/05 04:27:09;;;;;;;2.60;1.50;;;;;;;;;;5096679;27;20055;-67
2022/08/05 04:29:36;;;;;;;2.58;1.80;;;;;;;;;;5081438;28;20059;-67
2022/08/05 04:32:02;;;;;;;4.90;1.67;;;;;;;;;;5096733;28;20492;-67
2022/08/05 04:34:29;;;;;;;4.05;1.92;;;;;;;;;;5089845;28;20054;-68
2022/08/05 04:37:00;;;;;;;5.78;2.40;;;;;;;;;;5091657;28;21001;-67
2022/08/05 04:39:28;;;;;;;3.78;2.08;;;;;;;;;;5090246;28;20397;-67
2022/08/05 04:41:54;;;;;;;6.15;2.45;;;;;;;;;;5073148;28;20549;-67
2022/08/05 04:44:21;;;;;;;5.15;2.53;;;;;;;;;;5088243;28;20052;-68
2022/08/05 04:46:56;;;;;;;5.00;2.47;;;;;;;;;;5084282;28;20060;-68
2022/08/05 04:49:24;;;;;;;4.45;3.10;;;;;;;;;;5091832;28;20069;-69
2022/08/05 04:52:10;;;;;;;6.40;2.60;;;;;;;;;;5091533;27;20048;-68
2022/08/05 04:54:36;;;;;;;3.60;2.10;;;;;;;;;;5102337;27;20057;-67
2022/08/05 04:57:10;;;;;;;5.72;2.55;;;;;;;;;;5093393;28;20059;-67
2022/08/05 04:59:36;;;;;;;2.80;1.90;;;;;;;;;;5109460;27;20135;-67
2022/08/05 05:02:05;;;;;;;2.10;1.83;;;;;;;;;;5104266;28;20076;-67
2022/08/05 05:04:52;;;;;;;3.97;2.42;;;;;;;;;;5099080;27;20487;-67
2022/08/05 05:07:27;;;;;;;3.28;1.75;;;;;;;;;;5071477;28;20059;-67
2022/08/05 05:10:04;;;;;;;4.40;1.80;;;;;;;;;;5076412;28;20596;-67
2022/08/05 05:12:31;;;;;;;3.50;1.45;;;;;;;;;;5091528;28;20558;-67
2022/08/05 05:14:58;;;;;;;3.08;1.58;;;;;;;;;;5091329;28;20570;-68
2022/08/05 05:17:35;;;;;;;3.40;1.40;;;;;;;;;;5085637;28;20057;-67
2022/08/05 05:20:21;;;;;;;2.55;1.30;;;;;;;;;;5091396;28;20049;-68
2022/08/05 05:22:53;;;;;;;2.00;1.90;;;;;;;;;;5091284;28;20057;-68
2022/08/05 05:25:19;;;;;;;2.60;1.52;;;;;;;;;;5099595;28;20147;-67
2022/08/05 05:27:58;;;;;;;2.08;1.95;;;;;;;;;;5071396;28;20080;-68
2022/08/05 05:30:24;;;;;;;3.83;1.40;;;;;;;;;;5085894;28;20491;-67
2022/08/05 05:32:59;;;;;;;2.30;1.40;;;;;;;;;;5111869;27;20419;-67
2022/08/05 05:35:39;;;;;;;3.22;1.65;;;;;;;;;;5090342;27;20787;-68
2022/08/05 05:38:07;;;;;;;6.18;1.77;;;;;;;;;;5091146;28;20060;-67
2022/08/05 05:40:39;;;;;;;1.52;1.40;;;;;;;;;;5096149;28;20084;-67
2022/08/05 05:43:17;;;;;;;3.10;1.50;;;;;;;;;;5091562;28;20059;-67
2022/08/05 05:46:03;;;;;;;2.50;1.33;;;;;;;;;;5078299;28;20056;-68
2022/08/05 05:48:36;;;;;;;1.92;1.40;;;;;;;;;;5086502;28;20057;-67
2022/08/05 05:51:02;;;;;;;3.95;1.80;;;;;;;;;;5085492;28;20132;-67
2022/08/05 05:53:41;;;;;;;6.35;1.73;;;;;;;;;;5095806;28;20140;-68
2022/08/05 05:56:23;;;;;;;4.03;1.70;;;;;;;;;;5091840;28;20063;-67
2022/08/05 05:58:58;;;;;;;2.00;1.55;;;;;;;;;;5097659;28;20056;-67
2022/08/05 06:01:33;;;;;;;4.82;1.65;;;;;;;;;;5087305;28;20056;-69
2022/08/05 06:04:04;;;;;;;7.18;2.20;;;;;;;;;;5091424;28;20061;-69
2022/08/05 06:06:34;;;;;;;3.38;2.15;;;;;;;;;;5087035;28;20599;-68
2022/08/05 06:09:01;;;;;;;2.60;1.80;;;;;;;;;;5088649;28;20084;-70
2022/08/05 06:11:29;;;;;;;5.60;1.75;;;;;;;;;;5089153;28;20130;-67
2022/08/05 06:13:55;;;;;;;2.47;1.58;;;;;;;;;;5092464;28;20057;-68
2022/08/05 06:16:22;;;;;;;1.58;1.13;;;;;;;;;;5091416;28;20056;-69
2022/08/05 06:18:56;;;;;;;4.47;1.17;;;;;;;;;;5097345;28;20135;-68
2022/08/05 06:21:26;;;;;;;3.75;1.45;;;;;;;;;;5076184;28;20287;-68
2022/08/05 06:24:04;;;;;;;1.35;1.25;;;;;;;;;;5107214;28;20125;-68
2022/08/05 06:26:31;;;;;;;1.58;1.20;;;;;;;;;;5103039;27;20572;-69
2022/08/05 06:29:00;;;;;;;1.48;0.98;;;;;;;;;;5093867;28;20053;-68
2022/08/05 06:31:32;;;;;;;2.15;1.17;;;;;;;;;;5092810;28;20190;-67
2022/08/05 06:33:59;;;;;;;2.33;1.10;;;;;;;;;;5088419;28;20137;-68
2022/08/05 06:36:34;;;;;;;;;;;;;;;;;;5093690;28;20048;-68
2022/08/05 06:39:18;;;;;;;2.35;0.80;;;;;;;;;;5092412;28;47064;-68
2022/08/05 06:41:48;;;;;;;1.42;0.82;;;;;;;;;;5092828;28;20404;-69
2022/08/05 06:44:15;;;;;;;2.63;0.93;;;;;;;;;;5102125;27;20083;-68
2022/08/05 06:46:43;;;;;;;2.25;1.10;;;;;;;;;;5100487;27;20119;-68
2022/08/05 06:49:09;;;;;;;1.98;1.00;;;;;;;;;;5093145;28;20500;-69
2022/08/05 06:51:37;;;;;;;4.38;2.20;;;;;;;;;;5077065;28;20114;-68
2022/08/05 06:54:06;;;;;;;2.92;1.38;;;;;;;;;;5081521;28;20100;-69
2022/08/05 06:56:33;;;;;;;1.70;0.90;;;;;;;;;;5092802;28;20060;-70
2022/08/05 06:59:01;;;;;;;2.22;1.15;;;;;;;;;;5098572;28;20050;-69
2022/08/05 07:01:27;;;;;;;2.20;0.90;;;;;;;;;;5091803;27;20044;-69
2022/08/05 07:03:58;;;;;;;2.38;1.33;;;;;;;;;;5089950;28;20059;-68
2022/08/05 07:06:24;;;;;;;2.45;1.15;;;;;;;;;;5093228;28;20131;-68
2022/08/05 07:08:53;;;;;;;2.15;1.88;;;;;;;;;;5092219;27;20060;-69
2022/08/05 07:11:20;;;;;;;1.02;0.98;;;;;;;;;;5092714;28;20053;-70
2022/08/05 07:16:59;;;;;;;1.50;0.95;;;;;;;;;;5099170;27;20052;-70
2022/08/05 07:19:45;;;;;;;1.48;0.90;;;;;;;;;;5074840;28;20057;-69
2022/08/05 07:22:31;;;;;;;1.95;0.65;;;;;;;;;;5092321;28;20064;-70
2022/08/05 07:24:58;;;;;;;1.52;0.77;;;;;;;;;;5090651;28;20056;-69
2022/08/05 07:27:45;;;;;;;1.85;0.90;;;;;;;;;;5077468;28;20492;-69
2022/08/05 07:30:27;;;;;;;1.85;0.90;;;;;;;;;;5077909;28;20079;-70
2022/08/05 07:32:58;;;;;;;3.85;1.20;;;;;;;;;;5114184;27;20129;-68
2022/08/05 07:35:25;;;;;;;1.75;1.10;;;;;;;;;;5115734;27;20052;-70
2022/08/05 07:38:11;;;;;;;1.25;0.70;;;;;;;;;;5108587;27;20328;-68
2022/08/05 07:40:57;;;;;;;2.80;0.70;;;;;;;;;;5089122;28;20052;-70
2022/08/05 07:43:42;;;;;;;2.40;0.85;;;;;;;;;;5094798;28;20423;-70
2022/08/05 07:46:08;;;;;;;1.55;0.77;;;;;;;;;;5094725;28;20078;-69
2022/08/05 07:48:50;;;;;;;1.13;0.60;;;;;;;;;;5094884;28;20106;-69
2022/08/05 07:51:32;;;;;;;0.77;0.77;;;;;;;;;;5073098;28;20497;-68
2022/08/05 07:54:07;;;;;;;4.32;1.20;;;;;;;;;;5095865;28;20501;-68
2022/08/05 07:56:35;;;;;;;2.75;1.00;;;;;;;;;;5091915;28;20136;-70
2022/08/05 07:59:22;;;;;;;1.58;1.00;;;;;;;;;;5092757;28;20059;-69
2022/08/05 08:02:06;;;;;;;0.80;0.60;;;;;;;;;;5090256;28;20053;-68
2022/08/05 08:04:40;;;;;;;0.60;0.55;;;;;;;;;;5092306;28;20056;-67
2022/08/05 08:07:07;;;;;;;1.55;0.50;;;;;;;;;;5092045;28;20147;-72
2022/08/05 08:09:33;;;;;;;0.85;0.50;;;;;;;;;;5092465;28;20048;-72
2022/08/05 08:12:00;;;;;;;1.17;0.60;;;;;;;;;;5092652;28;20076;-71
2022/08/05 08:14:40;;;;;;;0.93;0.57;;;;;;;;;;5092413;28;20056;-73
2022/08/05 08:17:13;;;;;;;3.10;0.70;;;;;;;;;;5090539;28;20106;-73
2022/08/05 08:19:47;;;;;;;0.82;0.82;;;;;;;;;;5093219;28;20155;-72
2022/08/05 08:22:33;;;;;;;1.42;0.50;;;;;;;;;;5092979;28;20056;-74
2022/08/05 08:24:59;;;;;;;1.38;0.50;;;;;;;;;;5092752;28;20143;-72
2022/08/05 08:27:30;;;;;;;1.85;0.68;;;;;;;;;;5092541;28;20052;-69
2022/08/05 08:30:10;;;;;;;3.45;0.90;;;;;;;;;;5090355;28;20057;-70
2022/08/05 08:32:56;;;;;;;1.00;0.60;;;;;;;;;;5086653;28;20048;-69
2022/08/05 08:35:28;;;;;;;2.42;1.05;;;;;;;;;;5092169;28;20048;-70
2022/08/05 08:38:00;;;;;;;1.00;0.43;;;;;;;;;;5094887;28;20052;-69
2022/08/05 08:40:26;;;;;;;0.95;0.60;;;;;;;;;;5096168;27;20084;-70
2022/08/05 08:42:53;;;;;;;0.98;0.85;;;;;;;;;;5089338;28;20529;-70
2022/08/05 08:45:22;;;;;;;1.13;0.63;;;;;;;;;;5092052;28;20060;-68
2022/08/05 08:47:55;;;;;;;1.35;0.55;;;;;;;;;;5077074;28;20052;-67
2022/08/05 08:50:43;;;;;;;2.88;0.88;;;;;;;;;;5071577;28;20049;-67
2022/08/05 08:53:34;;;;;;;0.82;0.65;;;;;;;;;;5090136;28;20498;-68
2022/08/05 08:56:01;;;;;;;0.80;0.60;;;;;;;;;;5090295;28;20056;-70
2022/08/05 08:58:31;;;;;;;1.95;0.65;;;;;;;;;;5089041;28;20081;-70
2022/08/05 09:01:09;;;;;;;0.40;0.40;;;;;;;;;;5091959;28;20049;-70
2022/08/05 09:03:42;;;;;;;1.17;0.60;;;;;;;;;;5091933;28;20122;-71
2022/08/05 09:06:10;;;;;;;3.90;0.50;;;;;;;;;;5091851;28;20209;-70
2022/08/05 09:08:45;;;;;;;3.00;0.70;;;;;;;;;;5090946;28;20543;-71
2022/08/05 09:11:12;;;;;;;1.27;0.50;;;;;;;;;;5090708;28;20054;-70
2022/08/05 09:13:39;;;;;;;0.65;0.50;;;;;;;;;;5091671;28;20122;-70
2022/08/05 09:16:26;;;;;;;0.63;0.50;;;;;;;;;;5089620;28;20048;-68
2022/08/05 09:18:52;;;;;;;0.40;0.40;;;;;;;;;;5090177;28;20131;-69
2022/08/05 09:21:21;;;;;;;1.67;0.88;;;;;;;;;;5071961;28;20087;-67
2022/08/05 09:24:08;;;;;;;2.58;0.60;;;;;;;;;;5082811;28;20489;-68
2022/08/05 09:26:35;;;;;;;0.73;0.52;;;;;;;;;;5096250;27;20060;-72
2022/08/05 09:29:04;;;;;;;1.30;0.90;;;;;;;;;;5095927;28;20119;-73
2022/08/05 09:31:35;;;;;;;2.10;0.47;;;;;;;;;;5094550;28;20527;-71
2022/08/05 09:34:21;;;;;;;4.68;0.98;;;;;;;;;;5099289;28;20045;-73
2022/08/05 09:36:52;;;;;;;0.50;0.50;;;;;;;;;;5086683;28;20049;-74
2022/08/05 09:39:23;;;;;;;2.30;0.60;;;;;;;;;;5084575;28;20564;-71
2022/08/05 09:42:05;;;;;;;0.98;0.52;;;;;;;;;;5090546;28;20049;-71
2022/08/05 09:44:33;;;;;;;0.55;0.50;;;;;;;;;;5089104;28;20053;-72
2022/08/05 09:47:09;;;;;;;1.17;0.95;;;;;;;;;;5089538;28;20071;-73
2022/08/05 09:49:43;;;;;;;0.52;0.50;;;;;;;;;;5092284;28;20056;-74
2022/08/05 09:52:29;;;;;;;0.30;0.30;;;;;;;;;;5077641;28;20526;-74
2022/08/05 09:54:58;;;;;;;3.22;0.50;;;;;;;;;;5091185;28;20053;-73
2022/08/05 09:57:33;;;;;;;0.28;0.20;;;;;;;;;;5085664;28;20079;-73
2022/08/05 10:00:07;;;;;;;1.27;0.60;;;;;;;;;;5090259;28;20266;-73
2022/08/05 10:02:37;;;;;;;0.50;0.40;;;;;;;;;;5094690;28;20056;-74
2022/08/05 10:05:08;;;;;;;1.02;0.30;;;;;;;;;;5093367;28;20624;-73
2022/08/05 10:08:01;;;;;;;1.25;0.40;;;;;;;;;;5073780;28;20111;-74
2022/08/05 10:10:48;;;;;;;0.30;0.30;;;;;;;;;;5092926;28;20063;-73
2022/08/05 10:13:29;;;;;;;1.83;0.47;;;;;;;;;;5090431;28;20057;-72
2022/08/05 10:16:33;;;;;;;2.53;0.50;;;;;;;;;;5094627;28;20052;-69
2022/08/05 10:19:18;;;;;;;1.25;0.30;;;;;;;;;;5094902;28;20056;-72
2022/08/05 10:21:57;;;;;;;0.90;0.47;;;;;;;;;;5094243;28;20106;-73
2022/08/05 10:24:23;;;;;;;2.13;0.40;;;;;;;;;;5094361;28;20052;-73
2022/08/05 10:26:55;;;;;;;1.13;0.60;;;;;;;;;;5094458;28;20106;-72
2022/08/05 10:29:28;;;;;;;0.60;0.50;;;;;;;;;;5092298;28;20048;-72
2022/08/05 10:32:21;;;;;;;2.92;0.60;;;;;;;;;;5092156;28;20053;-72
2022/08/05 10:35:07;;;;;;;0.30;0.30;;;;;;;;;;5093134;28;20143;-72
2022/08/05 10:37:34;;;;;;;0.52;0.25;;;;;;;;;;5094102;28;20060;-72
2022/08/05 10:40:17;;;;;;;1.73;0.30;;;;;;;;;;5093791;28;20080;-72
2022/08/05 10:42:46;;;;;;;0.55;0.32;;;;;;;;;;5093579;28;20056;-72
2022/08/05 10:45:14;;;;;;;0.93;0.30;;;;;;;;;;5090776;28;20052;-71
2022/08/05 10:48:26;;;;;;;0.57;0.30;;;;;;;;;;5085237;28;20059;-73
2022/08/05 10:51:07;;;;;;;0.50;0.25;;;;;;;;;;5089984;28;20114;-73
2022/08/05 10:53:55;;;;;;;1.85;0.35;;;;;;;;;;5091796;28;20136;-72
2022/08/05 10:56:24;;;;;;;1.23;0.65;;;;;;;;;;5093135;28;20217;-72
2022/08/05 10:58:54;;;;;;;0.68;0.30;;;;;;;;;;5075133;28;20064;-71
2022/08/05 11:01:28;;;;;;;0.47;0.28;;;;;;;;;;5073420;28;20082;-70
2022/08/05 11:04:16;;;;;;;2.38;0.40;;;;;;;;;;5082614;28;20060;-71
2022/08/05 11:06:56;;;;;;;2.50;0.47;;;;;;;;;;5079736;28;20068;-72
2022/08/05 11:09:24;;;;;;;1.38;0.50;;;;;;;;;;5090395;28;20056;-72
2022/08/05 11:12:22;;;;;;;0.25;0.25;;;;;;;;;;5092341;28;20469;-72
2022/08/05 11:15:05;;;;;;;1.30;0.43;;;;;;;;;;5093267;28;20056;-70
2022/08/05 11:17:52;;;;;;;1.50;0.35;;;;;;;;;;5090196;28;20083;-71
2022/08/05 11:20:43;;;;;;;2.10;0.60;;;;;;;;;;5073336;28;20111;-70
2022/08/05 11:23:24;;;;;;;0.52;0.52;;;;;;;;;;5085040;28;20056;-71
2022/08/05 11:26:00;;;;;;;1.55;0.47;;;;;;;;;;5072525;28;20150;-71
2022/08/05 11:28:34;;;;;;;1.23;0.50;;;;;;;;;;5073061;28;20053;-69
2022/08/05 11:31:01;;;;;;;0.52;0.40;;;;;;;;;;5084705;28;20567;-71
2022/08/05 11:33:36;;;;;;;0.90;0.50;;;;;;;;;;5079340;28;20055;-71
2022/08/05 11:36:14;;;;;;;1.95;0.50;;;;;;;;;;5072655;28;20114;-72
2022/08/05 11:38:59;;;;;;;1.85;0.40;;;;;;;;;;5087733;28;20138;-72
2022/08/05 11:41:26;;;;;;;1.45;0.30;;;;;;;;;;5092441;28;20088;-73
2022/08/05 11:44:14;;;;;;;3.45;0.55;;;;;;;;;;5091241;28;20503;-71
2022/08/05 11:47:01;;;;;;;1.45;0.57;;;;;;;;;;5093160;28;20056;-71
2022/08/05 11:49:43;;;;;;;2.20;0.45;;;;;;;;;;5092981;28;20063;-74
2022/08/05 11:52:26;;;;;;;4.95;1.15;;;;;;;;;;5092395;28;20136;-73
2022/08/05 11:54:55;;;;;;;0.80;0.50;;;;;;;;;;5091012;28;20055;-71
2022/08/05 11:57:26;;;;;;;0.43;0.35;;;;;;;;;;5092046;28;20059;-72
2022/08/05 11:59:56;;;;;;;0.30;0.30;;;;;;;;;;5092294;28;20057;-71
2022/08/05 12:02:23;;;;;;;0.52;0.52;;;;;;;;;;5090022;28;20044;-73
2022/08/05 12:04:57;;;;;;;0.98;0.40;;;;;;;;;;5090405;28;20059;-70
2022/08/05 12:07:25;;;;;;;0.93;0.50;;;;;;;;;;5091742;28;20508;-72
2022/08/05 12:10:12;;;;;;;0.85;0.70;;;;;;;;;;5089867;28;20978;-72
2022/08/05 12:12:38;;;;;;;1.85;0.68;;;;;;;;;;5091470;28;20084;-71
2022/08/05 12:15:23;;;;;;;0.45;0.40;;;;;;;;;;5091881;28;20052;-73
2022/08/05 12:18:03;;;;;;;0.85;0.35;;;;;;;;;;5091702;28;20095;-73
2022/08/05 12:20:37;;;;;;;0.30;0.30;;;;;;;;;;5091573;28;20048;-72
2022/08/05 12:23:08;;;;;;;2.00;0.50;;;;;;;;;;5091922;28;20055;-73
2022/08/05 12:25:51;;;;;;;1.50;0.70;;;;;;;;;;5092905;28;20397;-74
2022/08/05 12:28:38;;;;;;;1.67;0.50;;;;;;;;;;5091295;28;20099;-73
2022/08/05 12:31:07;;;;;;;3.63;0.63;;;;;;;;;;5092227;28;20131;-74
2022/08/05 12:33:33;;;;;;;1.35;0.43;;;;;;;;;;5091633;28;20147;-73
2022/08/05 12:36:05;;;;;;;2.72;0.77;;;;;;;;;;5091777;28;20064;-71
2022/08/05 12:38:35;;;;;;;2.35;0.60;;;;;;;;;;5091515;28;20083;-72
2022/08/05 12:41:05;;;;;;;0.30;0.30;;;;;;;;;;5087136;28;20061;-73
2022/08/05 12:43:47;;;;;;;1.90;0.47;;;;;;;;;;5084949;28;20055;-72
2022/08/05 12:46:21;;;;;;;1.38;0.70;;;;;;;;;;5082272;28;20491;-71
2022/08/05 12:49:16;;;;;;;2.28;0.80;;;;;;;;;;5091680;28;20159;-72
2022/08/05 12:51:47;;;;;;;0.90;0.43;;;;;;;;;;5091875;28;20084;-72
2022/08/05 12:54:34;;;;;;;0.38;0.38;;;;;;;;;;5089715;28;20508;-71
2022/08/05 12:57:04;;;;;;;1.23;0.60;;;;;;;;;;5091085;28;20057;-72
2022/08/05 12:59:44;;;;;;;1.95;0.57;;;;;;;;;;5086375;28;20130;-74
2022/08/05 13:02:30;;;;;;;1.20;0.47;;;;;;;;;;5090748;28;20052;-72
2022/08/05 13:04:56;;;;;;;1.17;0.32;;;;;;;;;;5086123;28;20144;-72
2022/08/05 13:07:24;;;;;;;0.85;0.40;;;;;;;;;;5089147;28;20053;-69
2022/08/05 13:10:12;;;;;;;0.85;0.50;;;;;;;;;;5090518;28;20518;-69
2022/08/05 13:12:38;;;;;;;1.55;0.50;;;;;;;;;;5091052;28;20980;-72
2022/08/05 13:15:17;;;;;;;0.40;0.40;;;;;;;;;;5090412;28;20060;-70
2022/08/05 13:18:00;;;;;;;0.73;0.40;;;;;;;;;;5089728;28;20143;-71
2022/08/05 13:20:36;;;;;;;1.38;0.40;;;;;;;;;;5090093;28;20076;-71
2022/08/05 13:23:05;;;;;;;0.77;0.50;;;;;;;;;;5094282;28;20132;-71
2022/08/05 13:25:34;;;;;;;1.55;0.43;;;;;;;;;;5096439;28;20078;-70
2022/08/05 13:28:20;;;;;;;1.65;0.73;;;;;;;;;;5095848;28;20053;-70
2022/08/05 13:30:47;;;;;;;2.25;0.45;;;;;;;;;;5096794;28;20059;-71
2022/08/05 13:33:18;;;;;;;0.95;0.40;;;;;;;;;;5095937;28;20045;-69
2022/08/05 13:36:04;;;;;;;1.75;0.57;;;;;;;;;;5094354;27;20076;-71
2022/08/05 13:38:36;;;;;;;2.50;0.50;;;;;;;;;;5088750;28;20079;-69
2022/08/05 13:41:07;;;;;;;0.85;0.70;;;;;;;;;;5093284;28;20668;-71
2022/08/05 13:43:34;;;;;;;0.45;0.38;;;;;;;;;;5096527;28;20055;-72
2022/08/05 13:46:20;;;;;;;1.63;0.45;;;;;;;;;;5088535;28;20103;-69
2022/08/05 13:49:06;;;;;;;0.77;0.47;;;;;;;;;;5092965;28;20055;-69
2022/08/05 13:51:36;;;;;;;0.90;0.65;;;;;;;;;;5091075;28;20143;-72
2022/08/05 13:54:08;;;;;;;0.50;0.50;;;;;;;;;;5092647;28;20092;-71
2022/08/05 13:56:38;;;;;;;0.50;0.50;;;;;;;;;;5086928;28;20060;-69
2022/08/05 13:59:15;;;;;;;1.33;0.70;;;;;;;;;;5092730;28;20637;-71
2022/08/05 14:01:46;;;;;;;1.25;0.65;;;;;;;;;;5097700;28;20066;-69
2022/08/05 14:07:37;;;;;;;1.92;0.43;;;;;;;;;;5088721;28;20521;-68
2022/08/05 14:10:25;;;;;;;1.55;0.60;;;;;;;;;;5094097;28;20059;-68
2022/08/05 14:12:56;;;;;;;1.05;0.50;;;;;;;;;;5102930;27;20083;-69
2022/08/05 14:15:23;;;;;;;0.43;0.40;;;;;;;;;;5094460;28;20048;-71
2022/08/05 14:18:10;;;;;;;0.82;0.30;;;;;;;;;;5093040;28;20522;-70
2022/08/05 14:20:43;;;;;;;1.70;0.68;;;;;;;;;;5087905;28;20063;-75
2022/08/05 14:23:13;;;;;;;0.88;0.47;;;;;;;;;;5090359;28;20051;-71
2022/08/05 14:25:48;;;;;;;1.70;0.60;;;;;;;;;;5079704;28;20060;-70
2022/08/05 14:28:22;;;;;;;2.05;0.50;;;;;;;;;;5088637;28;20048;-69
2022/08/05 14:30:54;;;;;;;1.33;1.15;;;;;;;;;;5092265;28;20048;-69
2022/08/05 14:33:20;;;;;;;1.60;0.73;;;;;;;;;;5092768;28;20574;-70
2022/08/05 14:35:49;;;;;;;1.65;0.50;;;;;;;;;;5092540;28;20094;-69
2022/08/05 14:38:17;;;;;;;0.80;0.40;;;;;;;;;;5093494;28;20060;-70
2022/08/05 14:41:00;;;;;;;0.47;0.47;;;;;;;;;;5093098;28;20053;-69
2022/08/05 14:43:32;;;;;;;0.88;0.35;;;;;;;;;;5093510;28;20056;-69
2022/08/05 14:46:19;;;;;;;0.70;0.50;;;;;;;;;;5082822;28;20050;-70
2022/08/05 14:48:45;;;;;;;0.95;0.63;;;;;;;;;;5093138;28;20164;-70
2022/08/05 14:51:15;;;;;;;1.73;1.10;;;;;;;;;;5093114;28;20114;-72
2022/08/05 14:53:42;;;;;;;0.85;0.60;;;;;;;;;;5093192;28;20078;-72
2022/08/05 14:56:10;;;;;;;0.70;0.50;;;;;;;;;;5100103;28;20055;-71
2022/08/05 14:58:37;;;;;;;2.60;0.70;;;;;;;;;;5095992;27;20075;-70
2022/08/05 15:01:12;;;;;;;1.23;0.60;;;;;;;;;;5090761;28;20515;-69
2022/08/05 15:03:42;;;;;;;2.72;0.68;;;;;;;;;;5089206;28;20465;-68
2022/08/05 15:06:10;;;;;;;0.93;0.65;;;;;;;;;;5092336;28;20512;-69
2022/08/05 15:08:41;;;;;;;1.48;0.63;;;;;;;;;;5092018;28;20150;-70
2022/08/05 15:11:27;;;;;;;3.13;0.90;;;;;;;;;;5081362;28;20055;-71
2022/08/05 15:14:13;;;;;;;3.20;0.73;;;;;;;;;;5091653;28;20822;-71
2022/08/05 15:17:00;;;;;;;0.93;0.52;;;;;;;;;;5079850;28;20052;-68
2022/08/05 15:19:29;;;;;;;1.25;0.70;;;;;;;;;;5092739;28;20048;-72
2022/08/05 15:21:55;;;;;;;0.90;0.65;;;;;;;;;;5091213;28;20052;-71
2022/08/05 15:24:26;;;;;;;3.20;0.57;;;;;;;;;;5091674;28;20048;-73
2022/08/05 15:26:52;;;;;;;1.00;0.70;;;;;;;;;;5092786;28;20087;-72
2022/08/05 15:29:21;;;;;;;0.95;0.68;;;;;;;;;;5091189;28;20056;-72
2022/08/05 15:31:47;;;;;;;1.27;0.45;;;;;;;;;;5091312;28;20492;-72
2022/08/05 15:34:18;;;;;;;0.70;0.55;;;;;;;;;;5092950;28;20144;-72